createdAt,value
2022-10-11T00:01:12.381Z,20.17
2022-10-11T00:03:41.580Z,12.97
2022-10-11T00:06:12.122Z,16.93
2022-10-11T00:08:40.769Z,19.57
2022-10-11T00:11:10.198Z,15.27
2022-10-11T00:13:40.721Z,17.23
2022-10-11T00:16:11.778Z,15.37
2022-10-11T00:18:40.985Z,21.13
2022-10-11T00:21:12.267Z,25.10
2022-10-11T00:23:41.781Z,21.53
2022-10-11T00:26:11.655Z,24.70
2022-10-11T00:28:42.402Z,14.73
2022-10-11T00:31:11.887Z,17.43
2022-10-11T00:33:40.613Z,18.20
2022-10-11T00:36:14.087Z,27.60
2022-10-11T00:38:42.861Z,20.17
2022-10-11T00:41:11.727Z,15.43
2022-10-11T00:43:42.218Z,23.23
2022-10-11T00:46:29.201Z,18.30
2022-10-11T00:49:03.448Z,11.27
2022-10-11T00:51:43.370Z,18.20
2022-10-11T00:54:16.329Z,19.37
2022-10-11T00:56:49.427Z,19.40
2022-10-11T00:59:22.307Z,16.67
2022-10-11T01:01:52.137Z,22.93
2022-10-11T01:04:21.435Z,16.83
2022-10-11T01:06:52.499Z,14.73
2022-10-11T01:09:23.197Z,19.00
2022-10-11T01:11:52.618Z,18.97
2022-10-11T01:14:51.638Z,20.27
2022-10-11T01:17:26.505Z,21.07
2022-10-11T01:20:27.481Z,21.33
2022-10-11T01:23:32.766Z,18.90
2022-10-11T01:26:34.268Z,21.20
2022-10-11T01:29:12.814Z,19.10
2022-10-11T01:31:46.918Z,21.87
2022-10-11T01:34:19.349Z,20.80
2022-10-11T01:36:51.335Z,24.73
2022-10-11T01:39:25.721Z,14.13
2022-10-11T01:41:56.070Z,19.50
2022-10-11T01:44:25.944Z,22.47
2022-10-11T01:46:56.277Z,23.33
2022-10-11T01:49:25.348Z,19.53
2022-10-11T01:51:56.713Z,26.17
2022-10-11T01:54:57.001Z,15.03
2022-10-11T01:57:43.963Z,15.70
2022-10-11T02:00:15.684Z,23.33
2022-10-11T02:02:55.034Z,20.50
2022-10-11T02:05:30.714Z,15.03
2022-10-11T02:08:10.048Z,16.30
2022-10-11T02:10:42.235Z,20.73
2022-10-11T02:13:13.582Z,18.33
2022-10-11T02:15:43.881Z,19.80
2022-10-11T02:18:17.327Z,21.93
2022-10-11T02:20:46.983Z,21.57
2022-10-11T02:23:19.866Z,21.77
2022-10-11T02:25:50.470Z,22.53
2022-10-11T02:28:23.017Z,21.57
2022-10-11T02:30:52.579Z,25.50
2022-10-11T02:33:27.861Z,25.93
2022-10-11T02:36:00.053Z,21.03
2022-10-11T02:38:32.093Z,19.23
2022-10-11T02:41:07.584Z,20.97
2022-10-11T02:43:40.094Z,21.67
2022-10-11T02:46:09.854Z,17.50
2022-10-11T02:48:40.263Z,21.93
2022-10-11T02:51:14.197Z,15.63
2022-10-11T02:53:42.812Z,15.83
2022-10-11T02:56:12.232Z,17.93
2022-10-11T02:58:40.942Z,18.37
2022-10-11T03:01:09.348Z,20.13
2022-10-11T03:03:39.647Z,17.23
2022-10-11T03:06:09.535Z,16.33
2022-10-11T03:08:38.881Z,16.23
2022-10-11T03:11:07.402Z,15.70
2022-10-11T03:13:36.320Z,14.37
2022-10-11T03:16:05.299Z,15.63
2022-10-11T03:18:33.897Z,16.30
2022-10-11T03:21:04.124Z,17.83
2022-10-11T03:23:32.882Z,17.50
2022-10-11T03:26:01.511Z,18.10
2022-10-11T03:28:30.350Z,16.90
2022-10-11T03:30:59.514Z,14.33
2022-10-11T03:33:28.189Z,19.27
2022-10-11T03:35:57.084Z,16.73
2022-10-11T03:38:27.676Z,10.43
2022-10-11T03:40:56.339Z,15.20
2022-10-11T03:43:26.333Z,23.03
2022-10-11T03:45:55.602Z,21.23
2022-10-11T03:48:25.400Z,13.03
2022-10-11T03:50:54.680Z,15.50
2022-10-11T03:53:24.133Z,24.47
2022-10-11T03:55:55.717Z,21.47
2022-10-11T03:58:25.308Z,14.83
2022-10-11T04:00:55.169Z,15.43
2022-10-11T04:03:24.375Z,18.80
2022-10-11T04:05:53.075Z,18.33
2022-10-11T04:08:21.800Z,23.13
2022-10-11T04:10:50.728Z,24.03
2022-10-11T04:13:21.335Z,18.60
2022-10-11T04:15:49.886Z,22.43
2022-10-11T04:18:18.374Z,18.20
2022-10-11T04:20:47.018Z,14.30
2022-10-11T04:23:15.606Z,21.67
2022-10-11T04:25:45.598Z,18.80
2022-10-11T04:28:14.929Z,24.27
2022-10-11T04:30:45.164Z,22.50
2022-10-11T04:33:13.990Z,22.57
2022-10-11T04:35:42.549Z,22.43
2022-10-11T04:38:11.092Z,23.33
2022-10-11T04:40:39.676Z,18.63
2022-10-11T04:43:08.634Z,17.93
2022-10-11T04:45:37.843Z,18.23
2022-10-11T04:48:08.716Z,15.13
2022-10-11T04:50:37.542Z,16.77
2022-10-11T04:53:09.736Z,18.60
2022-10-11T04:55:38.507Z,21.63
2022-10-11T04:58:07.213Z,27.13
2022-10-11T05:00:35.991Z,13.97
2022-10-11T05:03:05.087Z,19.83
2022-10-11T05:05:34.907Z,17.10
2022-10-11T05:08:03.300Z,14.90
2022-10-11T05:10:32.335Z,17.40
2022-10-11T05:13:00.816Z,19.20
2022-10-11T05:15:30.710Z,23.13
2022-10-11T05:17:59.277Z,14.50
2022-10-11T05:20:28.172Z,19.37
2022-10-11T05:22:58.583Z,17.40
2022-10-11T05:25:27.373Z,14.63
2022-10-11T05:27:56.119Z,15.50
2022-10-11T05:30:25.252Z,21.30
2022-10-11T05:32:53.741Z,22.70
2022-10-11T05:35:22.737Z,21.57
2022-10-11T05:37:51.587Z,23.20
2022-10-11T05:40:22.719Z,27.47
2022-10-11T05:42:51.506Z,21.57
2022-10-11T05:45:20.096Z,17.80
2022-10-11T05:47:49.097Z,17.70
2022-10-11T05:50:21.967Z,20.90
2022-10-11T05:52:54.049Z,20.40
2022-10-11T05:55:24.399Z,25.50
2022-10-11T05:57:54.336Z,18.50
2022-10-11T06:00:22.987Z,21.23
2022-10-11T06:02:51.980Z,18.13
2022-10-11T06:05:21.758Z,20.37
2022-10-11T06:07:50.559Z,20.53
2022-10-11T06:10:19.819Z,16.43
2022-10-11T06:12:49.939Z,18.77
2022-10-11T06:15:19.493Z,14.47
2022-10-11T06:17:49.188Z,21.20
2022-10-11T06:20:17.984Z,17.27
2022-10-11T06:22:46.990Z,20.03
2022-10-11T06:25:18.408Z,15.40
2022-10-11T06:27:47.265Z,17.63
2022-10-11T06:30:17.396Z,14.57
2022-10-11T06:32:45.912Z,10.60
2022-10-11T06:35:14.579Z,12.27
2022-10-11T06:37:43.401Z,15.53
2022-10-11T06:40:13.397Z,8.67
2022-10-11T06:42:42.368Z,5.67
2022-10-11T06:45:11.550Z,8.90
2022-10-11T06:47:41.895Z,9.53
2022-10-11T06:50:10.947Z,9.27
2022-10-11T06:52:39.623Z,8.80
2022-10-11T06:55:09.462Z,8.17
2022-10-11T06:57:38.376Z,9.10
2022-10-11T07:00:12.642Z,8.23
2022-10-11T07:02:43.065Z,8.97
2022-10-11T07:05:12.812Z,7.23
2022-10-11T07:07:41.661Z,9.27
2022-10-11T07:10:11.100Z,4.97
2022-10-11T07:12:39.725Z,7.20
2022-10-11T07:15:10.394Z,9.20
2022-10-11T07:17:39.456Z,5.33
2022-10-11T07:20:10.763Z,9.20
2022-10-11T07:22:40.010Z,11.73
2022-10-11T07:25:09.825Z,6.37
2022-10-11T07:27:38.750Z,9.67
2022-10-11T07:30:09.100Z,7.70
2022-10-11T07:32:38.158Z,9.20
2022-10-11T07:35:07.629Z,11.30
2022-10-11T07:37:37.846Z,10.20
2022-10-11T07:40:11.096Z,7.83
2022-10-11T07:42:40.480Z,12.90
2022-10-11T07:45:09.717Z,12.10
2022-10-11T07:47:38.718Z,11.20
2022-10-11T07:50:08.704Z,9.60
2022-10-11T07:52:38.905Z,12.20
2022-10-11T07:55:08.720Z,10.13
2022-10-11T07:57:38.152Z,5.97
2022-10-11T08:00:08.291Z,15.93
2022-10-11T08:02:40.608Z,8.23
2022-10-11T08:05:09.998Z,10.20
2022-10-11T08:07:40.535Z,14.50
2022-10-11T08:10:10.779Z,14.03
2022-10-11T08:12:39.559Z,6.27
2022-10-11T08:15:09.085Z,9.30
2022-10-11T08:17:37.958Z,14.03
2022-10-11T08:20:07.721Z,12.00
2022-10-11T08:22:36.031Z,11.30
2022-10-11T08:25:06.869Z,8.33
2022-10-11T08:27:36.466Z,4.83
2022-10-11T08:30:06.578Z,11.03
2022-10-11T08:32:35.960Z,10.00
2022-10-11T08:35:04.990Z,11.13
2022-10-11T08:37:33.892Z,10.17
2022-10-11T08:40:03.651Z,9.17
2022-10-11T08:42:37.912Z,10.13
2022-10-11T08:45:12.048Z,11.07
2022-10-11T08:47:42.543Z,8.10
2022-10-11T08:50:25.452Z,9.03
2022-10-11T08:52:57.094Z,8.07
2022-10-11T08:55:29.487Z,7.83
2022-10-11T08:58:00.936Z,10.10
2022-10-11T09:00:33.201Z,9.57
2022-10-11T09:03:08.984Z,13.70
2022-10-11T09:05:51.249Z,7.47
2022-10-11T09:08:23.425Z,14.23
2022-10-11T09:11:01.745Z,13.10
2022-10-11T09:13:44.241Z,13.57
2022-10-11T09:16:19.826Z,10.87
2022-10-11T09:19:02.292Z,8.03
2022-10-11T09:21:39.674Z,11.83
2022-10-11T09:24:17.263Z,9.37
2022-10-11T09:26:52.968Z,11.57
2022-10-11T09:29:44.190Z,9.47
2022-10-11T09:32:16.447Z,8.53
2022-10-11T09:34:45.316Z,11.47
2022-10-11T09:37:19.985Z,13.37
2022-10-11T09:39:52.890Z,11.10
2022-10-11T09:42:22.096Z,8.63
2022-10-11T09:44:53.097Z,10.73
2022-10-11T09:47:24.205Z,8.53
2022-10-11T09:49:56.143Z,9.60
2022-10-11T09:52:26.151Z,10.23
2022-10-11T09:54:57.233Z,8.47
2022-10-11T09:57:28.200Z,7.20
2022-10-11T10:00:02.871Z,12.93
2022-10-11T10:02:47.110Z,12.10
2022-10-11T10:05:19.367Z,12.90
2022-10-11T10:08:09.815Z,9.97
2022-10-11T10:10:40.957Z,14.50
2022-10-11T10:13:22.601Z,11.97
2022-10-11T10:15:55.142Z,12.30
2022-10-11T10:18:28.113Z,9.83
2022-10-11T10:20:57.886Z,10.00
2022-10-11T10:23:29.792Z,9.77
2022-10-11T10:26:13.598Z,6.70
2022-10-11T10:28:57.286Z,12.13
2022-10-11T10:31:40.277Z,13.17
2022-10-11T10:34:23.804Z,11.60
2022-10-11T10:36:56.182Z,10.77
2022-10-11T10:39:28.768Z,7.73
2022-10-11T10:41:58.589Z,9.23
2022-10-11T10:44:27.520Z,11.23
2022-10-11T10:47:05.195Z,9.13
2022-10-11T10:49:53.621Z,11.67
2022-10-11T10:52:48.285Z,10.47
2022-10-11T10:55:25.328Z,7.93
2022-10-11T10:58:18.587Z,9.40
2022-10-11T11:00:50.376Z,9.03
2022-10-11T11:03:26.243Z,10.33
2022-10-11T11:06:02.664Z,12.00
2022-10-11T11:08:46.745Z,10.33
2022-10-11T11:11:28.196Z,7.53
2022-10-11T11:14:02.102Z,9.03
2022-10-11T11:16:35.944Z,6.87
2022-10-11T11:19:10.947Z,9.43
2022-10-11T11:21:45.483Z,12.67
2022-10-11T11:24:18.338Z,10.53
2022-10-11T11:26:51.275Z,12.50
2022-10-11T11:29:30.044Z,9.53
2022-10-11T11:32:10.655Z,10.83
2022-10-11T11:34:44.749Z,7.20
2022-10-11T11:37:22.396Z,6.60
2022-10-11T11:39:53.628Z,5.27
2022-10-11T11:42:25.904Z,7.97
2022-10-11T11:44:54.898Z,4.07
2022-10-11T11:47:29.811Z,6.10
2022-10-11T11:50:02.976Z,9.97
2022-10-11T11:52:37.697Z,6.53
2022-10-11T11:55:11.077Z,7.17
2022-10-11T11:57:50.322Z,8.67
2022-10-11T12:00:21.457Z,7.77
2022-10-11T12:02:55.188Z,4.27
2022-10-11T12:05:29.464Z,6.87
2022-10-11T12:08:00.166Z,10.30
2022-10-11T12:10:33.947Z,3.10
2022-10-11T12:13:18.019Z,4.77
2022-10-11T12:16:11.412Z,5.47
2022-10-11T12:18:52.729Z,6.30
2022-10-11T12:21:31.582Z,6.10
2022-10-11T12:24:01.709Z,6.93
2022-10-11T12:26:42.427Z,4.37
2022-10-11T12:29:45.836Z,7.07
2022-10-11T12:32:53.504Z,6.73
2022-10-11T12:36:02.681Z,6.47
2022-10-11T12:38:37.485Z,5.87
2022-10-11T12:41:39.830Z,5.77
2022-10-11T12:44:14.480Z,7.20
2022-10-11T12:47:13.422Z,9.47
2022-10-11T12:49:56.453Z,8.87
2022-10-11T12:52:31.191Z,6.13
2022-10-11T12:55:30.553Z,8.33
2022-10-11T12:58:38.438Z,7.70
2022-10-11T13:01:28.274Z,4.93
2022-10-11T13:04:02.698Z,6.53
2022-10-11T13:06:35.072Z,8.17
2022-10-11T13:09:07.341Z,11.60
2022-10-11T13:11:40.706Z,8.30
2022-10-11T13:14:12.904Z,7.97
2022-10-11T13:16:52.804Z,11.77
2022-10-11T13:19:24.847Z,8.87
2022-10-11T13:21:56.606Z,10.73
2022-10-11T13:24:26.888Z,7.47
2022-10-11T13:26:58.496Z,11.43
2022-10-11T13:29:33.973Z,9.53
2022-10-11T13:32:06.784Z,6.83
2022-10-11T13:34:39.310Z,11.23
2022-10-11T13:37:08.412Z,6.20
2022-10-11T13:39:39.350Z,8.77
2022-10-11T13:42:12.668Z,8.13
2022-10-11T13:44:42.310Z,8.93
2022-10-11T13:47:13.302Z,6.97
2022-10-11T13:49:46.233Z,9.93
2022-10-11T13:52:23.108Z,11.30
2022-10-11T13:54:57.637Z,6.93
2022-10-11T13:57:36.609Z,7.77
2022-10-11T14:00:11.207Z,6.73
2022-10-11T14:02:40.777Z,9.17
2022-10-11T14:05:19.978Z,8.43
2022-10-11T14:07:49.571Z,12.70
2022-10-11T14:10:22.298Z,8.40
2022-10-11T14:13:05.135Z,7.17
2022-10-11T14:15:35.399Z,6.50
2022-10-11T14:18:25.422Z,4.23
2022-10-11T14:20:53.956Z,10.97
2022-10-11T14:23:22.993Z,7.47
2022-10-11T14:25:53.979Z,6.50
2022-10-11T14:28:24.463Z,4.90
2022-10-11T14:30:53.311Z,4.57
2022-10-11T14:33:21.751Z,5.87
2022-10-11T14:35:50.820Z,5.87
2022-10-11T14:38:19.743Z,8.27
2022-10-11T14:40:48.527Z,9.37
2022-10-11T14:43:17.711Z,6.33
2022-10-11T14:45:48.072Z,11.90
2022-10-11T14:48:26.703Z,7.37
2022-10-11T14:51:06.541Z,7.37
2022-10-11T14:53:40.693Z,6.13
2022-10-11T14:56:10.015Z,10.03
2022-10-11T14:58:38.398Z,10.50
2022-10-11T15:01:10.720Z,4.97
2022-10-11T15:03:39.522Z,6.33
2022-10-11T15:06:09.493Z,7.97
2022-10-11T15:08:38.285Z,6.53
2022-10-11T15:11:07.154Z,6.67
2022-10-11T15:13:35.978Z,10.13
2022-10-11T15:16:04.911Z,9.93
2022-10-11T15:18:35.814Z,10.17
2022-10-11T15:21:04.684Z,6.90
2022-10-11T15:23:33.430Z,10.40
2022-10-11T15:26:02.512Z,13.33
2022-10-11T15:28:33.025Z,8.53
2022-10-11T15:31:01.842Z,7.90
2022-10-11T15:33:30.846Z,13.13
2022-10-11T15:36:00.971Z,9.00
2022-10-11T15:38:29.859Z,5.87
2022-10-11T15:40:59.992Z,7.80
2022-10-11T15:43:28.852Z,11.10
2022-10-11T15:45:58.776Z,6.57
2022-10-11T15:48:29.126Z,6.43
2022-10-11T15:50:58.875Z,8.87
2022-10-11T15:53:31.372Z,10.70
2022-10-11T15:56:03.170Z,8.73
2022-10-11T15:58:33.495Z,9.67
2022-10-11T16:01:06.602Z,9.70
2022-10-11T16:03:36.126Z,9.03
2022-10-11T16:06:06.338Z,10.00
2022-10-11T16:08:37.352Z,6.50
2022-10-11T16:11:07.529Z,6.77
2022-10-11T16:13:36.933Z,15.00
2022-10-11T16:16:07.617Z,12.07
2022-10-11T16:18:37.213Z,12.53
2022-10-11T16:21:08.755Z,7.37
2022-10-11T16:23:40.209Z,8.87
2022-10-11T16:26:10.982Z,5.50
2022-10-11T16:28:40.210Z,8.43
2022-10-11T16:31:09.863Z,12.00
2022-10-11T16:33:45.710Z,10.20
2022-10-11T16:36:36.514Z,7.23
2022-10-11T16:39:09.284Z,8.20
2022-10-11T16:41:37.749Z,7.63
2022-10-11T16:44:07.023Z,9.37
2022-10-11T16:46:36.063Z,7.80
2022-10-11T16:49:05.632Z,7.00
2022-10-11T16:51:34.357Z,7.23
2022-10-11T16:54:02.970Z,11.93
2022-10-11T16:56:37.409Z,11.03
2022-10-11T16:59:08.296Z,9.57
2022-10-11T17:01:37.821Z,11.37
2022-10-11T17:04:07.108Z,7.57
2022-10-11T17:06:35.951Z,8.00
2022-10-11T17:09:04.576Z,11.27
2022-10-11T17:11:35.049Z,6.27
2022-10-11T17:14:05.401Z,11.60
2022-10-11T17:16:34.110Z,10.30
2022-10-11T17:19:03.240Z,8.73
2022-10-11T17:21:31.928Z,8.50
2022-10-11T17:24:00.793Z,11.20
2022-10-11T17:26:29.302Z,5.93
2022-10-11T17:29:00.613Z,8.00
2022-10-11T17:31:29.975Z,6.97
2022-10-11T17:34:00.536Z,8.23
2022-10-11T17:36:32.113Z,7.10
2022-10-11T17:39:04.589Z,7.03
2022-10-11T17:41:33.662Z,7.87
2022-10-11T17:44:04.919Z,10.90
2022-10-11T17:46:34.088Z,7.60
2022-10-11T17:49:04.795Z,11.67
2022-10-11T17:51:34.625Z,8.03
2022-10-11T17:54:03.452Z,6.17
2022-10-11T17:56:37.387Z,8.83
2022-10-11T17:59:08.734Z,9.80
2022-10-11T18:01:37.677Z,10.83
2022-10-11T18:04:07.844Z,8.87
2022-10-11T18:06:40.651Z,10.57
2022-10-11T18:09:09.509Z,8.90
2022-10-11T18:11:38.534Z,14.30
2022-10-11T18:14:08.758Z,16.93
2022-10-11T18:16:38.883Z,18.17
2022-10-11T18:19:09.360Z,12.50
2022-10-11T18:21:38.217Z,12.77
2022-10-11T18:24:10.881Z,13.77
2022-10-11T18:26:40.038Z,12.63
2022-10-11T18:29:10.453Z,11.07
2022-10-11T18:31:39.183Z,11.50
2022-10-11T18:34:10.983Z,17.20
2022-10-11T18:36:40.392Z,10.53
2022-10-11T18:39:12.876Z,12.70
2022-10-11T18:41:44.503Z,16.80
2022-10-11T18:44:16.393Z,14.00
2022-10-11T18:46:46.141Z,6.60
2022-10-11T18:49:15.201Z,11.27
2022-10-11T18:51:48.046Z,13.30
2022-10-11T18:54:20.337Z,11.10
2022-10-11T18:56:50.990Z,12.47
2022-10-11T18:59:21.216Z,13.73
2022-10-11T19:01:52.425Z,12.17
2022-10-11T19:04:22.180Z,13.67
2022-10-11T19:06:52.641Z,9.07
2022-10-11T19:09:23.247Z,12.70
2022-10-11T19:11:53.544Z,16.33
2022-10-11T19:14:26.578Z,13.63
2022-10-11T19:16:55.767Z,10.53
2022-10-11T19:19:27.090Z,13.50
2022-10-11T19:21:56.040Z,15.07
2022-10-11T19:24:28.735Z,13.80
2022-10-11T19:27:02.244Z,13.73
2022-10-11T19:29:33.323Z,12.83
2022-10-11T19:32:03.643Z,10.60
2022-10-11T19:34:33.049Z,11.67
2022-10-11T19:37:03.734Z,9.10
2022-10-11T19:39:32.652Z,15.57
2022-10-11T19:42:01.968Z,11.40
2022-10-11T19:44:33.420Z,10.97
2022-10-11T19:47:06.347Z,6.07
2022-10-11T19:49:35.194Z,10.90
2022-10-11T19:52:03.961Z,11.20
2022-10-11T19:54:33.386Z,13.40
2022-10-11T19:57:02.169Z,13.87
2022-10-11T19:59:31.165Z,8.73
2022-10-11T20:02:01.395Z,6.47
2022-10-11T20:04:51.689Z,11.97
2022-10-11T20:07:20.906Z,11.40
2022-10-11T20:09:49.506Z,7.33
2022-10-11T20:12:18.359Z,8.00
2022-10-11T20:14:47.847Z,11.30
2022-10-11T20:17:16.869Z,7.27
2022-10-11T20:19:47.839Z,9.87
2022-10-11T20:22:18.408Z,8.73
2022-10-11T20:24:48.474Z,9.47
2022-10-11T20:27:17.975Z,10.37
2022-10-11T20:29:49.161Z,6.70
2022-10-11T20:32:19.480Z,8.70
2022-10-11T20:34:49.939Z,4.80
2022-10-11T20:37:19.342Z,8.03
2022-10-11T20:39:48.032Z,8.47
2022-10-11T20:42:18.435Z,6.43
2022-10-11T20:44:49.400Z,7.83
2022-10-11T20:47:18.318Z,8.83
2022-10-11T20:49:48.932Z,5.57
2022-10-11T20:52:17.806Z,7.37
2022-10-11T20:54:47.005Z,9.37
2022-10-11T20:57:16.239Z,11.07
2022-10-11T20:59:45.772Z,11.90
2022-10-11T21:02:18.789Z,7.13
2022-10-11T21:04:49.534Z,11.27
2022-10-11T21:07:19.349Z,5.80
2022-10-11T21:09:48.577Z,8.70
2022-10-11T21:12:17.096Z,10.73
2022-10-11T21:14:47.057Z,9.80
2022-10-11T21:17:16.302Z,11.20
2022-10-11T21:19:45.281Z,11.63
2022-10-11T21:22:15.927Z,3.60
2022-10-11T21:24:44.952Z,12.33
2022-10-11T21:27:13.787Z,13.33
2022-10-11T21:29:42.779Z,11.00
2022-10-11T21:32:14.376Z,11.73
2022-10-11T21:34:44.457Z,6.47
2022-10-11T21:37:15.608Z,8.20
2022-10-11T21:39:44.339Z,10.77
2022-10-11T21:42:14.127Z,9.97
2022-10-11T21:44:44.739Z,5.90
2022-10-11T21:47:14.229Z,8.93
2022-10-11T21:49:43.295Z,7.17
2022-10-11T21:52:12.078Z,8.30
2022-10-11T21:54:42.726Z,11.50
2022-10-11T21:57:12.462Z,9.73
2022-10-11T21:59:41.473Z,10.80
2022-10-11T22:02:12.539Z,6.23
2022-10-11T22:04:41.740Z,9.97
2022-10-11T22:07:10.863Z,9.80
2022-10-11T22:09:41.821Z,6.70
2022-10-11T22:12:11.416Z,7.03
2022-10-11T22:14:40.658Z,8.10
2022-10-11T22:17:09.541Z,9.30
2022-10-11T22:19:38.646Z,8.90
2022-10-11T22:22:09.286Z,9.87
2022-10-11T22:24:37.929Z,15.27
2022-10-11T22:27:09.140Z,10.53
2022-10-11T22:29:37.827Z,14.37
2022-10-11T22:32:07.195Z,10.50
2022-10-11T22:34:36.388Z,7.27
2022-10-11T22:37:05.892Z,9.50
2022-10-11T22:39:35.167Z,7.00
2022-10-11T22:42:04.979Z,7.57
2022-10-11T22:44:35.144Z,8.50
2022-10-11T22:47:04.375Z,9.90
2022-10-11T22:49:34.405Z,14.57
2022-10-11T22:52:03.504Z,11.03
2022-10-11T22:54:32.892Z,8.93
2022-10-11T22:57:02.206Z,7.73
2022-10-11T22:59:31.739Z,10.70
2022-10-11T23:02:02.180Z,11.93
2022-10-11T23:04:31.509Z,12.47
2022-10-11T23:07:04.924Z,12.50
2022-10-11T23:09:35.331Z,14.20
2022-10-11T23:12:04.758Z,10.37
2022-10-11T23:14:33.592Z,10.43
2022-10-11T23:17:04.066Z,11.20
2022-10-11T23:19:33.817Z,9.90
2022-10-11T23:22:03.062Z,15.00
2022-10-11T23:24:33.454Z,12.20
2022-10-11T23:27:03.201Z,12.13
2022-10-11T23:29:32.269Z,6.57
2022-10-11T23:32:01.460Z,9.27
2022-10-11T23:34:32.288Z,12.30
2022-10-11T23:37:02.111Z,8.40
2022-10-11T23:39:31.185Z,10.23
2022-10-11T23:42:00.898Z,11.10
2022-10-11T23:44:30.674Z,13.43
2022-10-11T23:46:59.655Z,10.73
2022-10-11T23:49:28.906Z,7.97
2022-10-11T23:51:59.400Z,9.23
2022-10-11T23:54:28.554Z,7.00
2022-10-11T23:56:58.048Z,12.70
2022-10-11T23:59:27.429Z,12.40
